Time;durP1;ratioP1;P1;durP2;ratioP2;P2;SDS_P1;SDS_P2;PMS_P1;PMS_P2;Temp;Humidity;BMP_temperature;BMP_pressure;BME280_temperature;BME280_humidity;BME280_pressure;Samples;Min_cycle;Max_cycle;Signal;HPM_P1;HPM_P2
2022/03/07 00:02:11;;;;;;;16.52;5.07;;;2.30;99.90;;;;;;5051736;28;20041;-69
2022/03/07 00:04:37;;;;;;;11.55;4.60;;;2.30;99.90;;;;;;5050479;28;20037;-69
2022/03/07 00:07:03;;;;;;;7.82;4.38;;;2.30;99.90;;;;;;5051707;28;20033;-69
2022/03/07 00:09:28;;;;;;;5.82;3.72;;;2.20;99.90;;;;;;5050542;28;20124;-69
2022/03/07 00:11:54;;;;;;;6.28;4.15;;;2.20;99.90;;;;;;5050542;28;20045;-69
2022/03/07 00:14:20;;;;;;;8.25;4.22;;;2.10;99.90;;;;;;5051648;28;20037;-69
2022/03/07 00:16:46;;;;;;;7.35;4.50;;;2.10;99.90;;;;;;5051335;28;20469;-69
2022/03/07 00:19:12;;;;;;;9.23;4.18;;;2.10;99.90;;;;;;5050545;28;20045;-69
2022/03/07 00:21:37;;;;;;;5.85;3.78;;;2.00;99.90;;;;;;5051762;28;20048;-69
2022/03/07 00:24:04;;;;;;;6.85;3.50;;;2.00;99.90;;;;;;5050533;28;20041;-69
2022/03/07 00:26:30;;;;;;;8.73;4.25;;;2.00;99.90;;;;;;5051464;28;20096;-69
2022/03/07 00:28:56;;;;;;;16.00;4.85;;;2.00;99.90;;;;;;5053102;28;20098;-69
2022/03/07 00:31:22;;;;;;;13.55;4.78;;;2.00;99.90;;;;;;5055848;28;20472;-69
2022/03/07 00:33:49;;;;;;;7.40;3.95;;;2.00;99.90;;;;;;5054407;28;20098;-69
2022/03/07 00:36:15;;;;;;;6.75;4.53;;;1.90;99.90;;;;;;5055449;28;20041;-69
2022/03/07 00:38:41;;;;;;;5.40;3.25;;;1.90;99.90;;;;;;5055525;28;20602;-69
2022/03/07 00:41:09;;;;;;;6.93;3.42;;;1.90;99.90;;;;;;5054573;28;20490;-69
2022/03/07 00:43:35;;;;;;;5.80;3.72;;;1.90;99.90;;;;;;5054981;28;20041;-69
2022/03/07 00:46:02;;;;;;;10.23;4.15;;;1.90;99.90;;;;;;5054831;28;20529;-70
2022/03/07 00:48:27;;;;;;;6.35;3.85;;;1.80;99.90;;;;;;5055516;28;20037;-69
2022/03/07 00:50:53;;;;;;;5.35;3.40;;;1.80;99.90;;;;;;5055314;28;20033;-69
2022/03/07 00:53:22;;;;;;;5.50;3.25;;;1.80;99.90;;;;;;5055085;28;20051;-69
2022/03/07 00:55:48;;;;;;;6.03;3.35;;;1.80;99.90;;;;;;5053402;28;20049;-70
2022/03/07 00:58:14;;;;;;;5.40;3.78;;;1.70;99.90;;;;;;5055145;28;20029;-69
2022/03/07 01:00:40;;;;;;;6.28;3.30;;;1.70;99.90;;;;;;5053688;28;20040;-69
2022/03/07 01:03:08;;;;;;;6.18;3.83;;;1.70;99.90;;;;;;5055015;28;20044;-69
2022/03/07 01:05:33;;;;;;;5.20;3.50;;;1.60;99.90;;;;;;5053502;28;20041;-70
2022/03/07 01:07:59;;;;;;;6.18;3.95;;;1.60;99.90;;;;;;5054879;28;20094;-69
2022/03/07 01:10:25;;;;;;;6.43;3.60;;;1.60;99.90;;;;;;5054942;28;20083;-69
2022/03/07 01:12:51;;;;;;;3.88;2.92;;;1.60;99.90;;;;;;5055412;28;20076;-69
2022/03/07 01:15:17;;;;;;;5.82;2.83;;;1.60;99.90;;;;;;5054912;28;20059;-69
2022/03/07 01:17:42;;;;;;;5.60;3.30;;;1.60;99.90;;;;;;5054832;28;20064;-69
2022/03/07 01:20:10;;;;;;;6.85;3.13;;;1.60;99.90;;;;;;5054941;28;20387;-69
2022/03/07 01:22:36;;;;;;;7.75;3.50;;;1.50;99.90;;;;;;5054672;28;20119;-70
2022/03/07 01:25:03;;;;;;;4.55;3.00;;;1.40;99.90;;;;;;5053213;28;20568;-69
2022/03/07 01:27:28;;;;;;;5.43;3.28;;;1.50;99.90;;;;;;5052994;28;20044;-69
2022/03/07 01:29:54;;;;;;;5.15;3.13;;;1.40;99.90;;;;;;5054665;28;20033;-69
2022/03/07 01:32:19;;;;;;;5.63;3.50;;;1.40;99.90;;;;;;5054459;28;20069;-69
2022/03/07 01:34:45;;;;;;;3.65;2.70;;;1.40;99.90;;;;;;5054482;28;20375;-69
2022/03/07 01:37:10;;;;;;;7.32;3.30;;;1.40;99.90;;;;;;5054080;28;20567;-69
2022/03/07 01:39:36;;;;;;;7.47;4.65;;;1.40;99.90;;;;;;5053600;28;20036;-68
2022/03/07 01:42:02;;;;;;;4.72;2.70;;;1.30;99.90;;;;;;5054194;28;20037;-70
2022/03/07 01:44:28;;;;;;;7.20;4.30;;;1.30;99.90;;;;;;5053960;28;20822;-69
2022/03/07 01:46:55;;;;;;;4.70;2.95;;;1.30;99.90;;;;;;5053900;28;20105;-70
2022/03/07 01:49:21;;;;;;;5.30;3.25;;;1.30;99.90;;;;;;5052501;28;20040;-70
2022/03/07 01:51:48;;;;;;;6.20;3.53;;;1.30;99.90;;;;;;5054136;28;20080;-70
2022/03/07 01:54:16;;;;;;;6.40;2.80;;;1.30;99.90;;;;;;5052663;28;20037;-70
2022/03/07 01:56:45;;;;;;;6.32;3.72;;;1.30;99.90;;;;;;5053677;28;20037;-70
2022/03/07 01:59:15;;;;;;;6.40;3.58;;;1.20;99.90;;;;;;5052690;28;20079;-70
2022/03/07 02:01:41;;;;;;;6.00;3.58;;;1.20;99.90;;;;;;5052908;28;20057;-70
2022/03/07 02:04:08;;;;;;;5.93;3.75;;;1.20;99.90;;;;;;5052188;28;20579;-70
2022/03/07 02:06:33;;;;;;;5.70;3.40;;;1.20;99.90;;;;;;5053306;28;20041;-70
2022/03/07 02:08:59;;;;;;;6.18;3.28;;;1.20;99.90;;;;;;5053813;28;20035;-70
2022/03/07 02:11:25;;;;;;;7.10;3.30;;;1.20;99.90;;;;;;5053642;28;20409;-69
2022/03/07 02:13:54;;;;;;;4.50;3.10;;;1.20;99.90;;;;;;5052365;28;20591;-69
2022/03/07 02:16:20;;;;;;;6.72;3.72;;;1.20;99.90;;;;;;5052185;28;20041;-69
2022/03/07 02:18:47;;;;;;;7.25;3.35;;;1.20;99.90;;;;;;5052174;28;20544;-69
2022/03/07 02:21:16;;;;;;;4.40;3.40;;;1.10;99.90;;;;;;5053557;28;20199;-70
2022/03/07 02:23:43;;;;;;;5.38;3.30;;;1.10;99.90;;;;;;5053326;28;20041;-69
2022/03/07 02:26:17;;;;;;;8.65;4.00;;;1.10;99.90;;;;;;5052829;28;20568;-69
2022/03/07 02:28:45;;;;;;;5.47;3.70;;;1.10;99.90;;;;;;5053410;28;20041;-69
2022/03/07 02:31:15;;;;;;;4.53;3.08;;;1.00;99.90;;;;;;5051794;28;20041;-69
2022/03/07 02:33:41;;;;;;;5.15;3.17;;;1.00;99.90;;;;;;5053442;28;20049;-70
2022/03/07 02:36:07;;;;;;;10.85;3.83;;;1.00;99.90;;;;;;5052737;28;20096;-70
2022/03/07 02:38:33;;;;;;;5.75;3.50;;;1.00;99.90;;;;;;5053213;28;20039;-70
2022/03/07 02:40:59;;;;;;;7.70;4.00;;;0.90;99.90;;;;;;5053022;28;20037;-70
2022/03/07 02:43:24;;;;;;;4.07;3.45;;;0.90;99.90;;;;;;5052918;28;20114;-70
2022/03/07 02:45:51;;;;;;;7.22;3.42;;;0.90;99.90;;;;;;5052195;28;20064;-70
2022/03/07 02:48:18;;;;;;;7.72;3.83;;;0.90;99.90;;;;;;5053164;28;20094;-70
2022/03/07 02:50:45;;;;;;;6.93;3.75;;;0.90;99.90;;;;;;5052557;28;20037;-70
2022/03/07 02:53:11;;;;;;;3.83;3.40;;;0.90;99.90;;;;;;5051506;28;20071;-69
2022/03/07 02:55:36;;;;;;;5.25;3.10;;;0.90;99.90;;;;;;5052460;28;20670;-69
2022/03/07 02:58:03;;;;;;;5.32;4.05;;;0.80;99.90;;;;;;5052733;28;20498;-69
2022/03/07 03:00:29;;;;;;;4.40;2.85;;;0.80;99.90;;;;;;5052523;28;20041;-69
2022/03/07 03:02:54;;;;;;;5.47;3.25;;;0.80;99.90;;;;;;5051287;28;20072;-69
2022/03/07 03:05:20;;;;;;;4.93;3.95;;;0.80;99.90;;;;;;5052323;28;20069;-70
2022/03/07 03:07:47;;;;;;;6.25;2.97;;;0.80;99.90;;;;;;5051369;28;20041;-70
2022/03/07 03:10:13;;;;;;;6.57;3.47;;;0.80;99.90;;;;;;5052596;28;20033;-69
2022/03/07 03:12:39;;;;;;;6.35;3.35;;;0.80;99.90;;;;;;5051359;28;20056;-69
2022/03/07 03:15:05;;;;;;;6.22;3.33;;;0.80;99.90;;;;;;5051405;28;20056;-69
2022/03/07 03:17:31;;;;;;;7.82;3.28;;;0.80;99.90;;;;;;5050972;28;20048;-69
2022/03/07 03:19:57;;;;;;;6.53;3.40;;;0.80;99.90;;;;;;5052479;28;20120;-69
2022/03/07 03:22:22;;;;;;;3.88;3.13;;;0.80;99.90;;;;;;5052362;28;20037;-70
2022/03/07 03:24:48;;;;;;;5.05;3.33;;;0.80;99.90;;;;;;5052237;28;20457;-69
2022/03/07 03:27:14;;;;;;;4.25;3.17;;;0.70;99.90;;;;;;5051892;28;20094;-70
2022/03/07 03:29:40;;;;;;;4.57;3.25;;;0.70;99.90;;;;;;5050818;28;20124;-70
2022/03/07 03:32:06;;;;;;;7.32;3.45;;;0.70;99.90;;;;;;5052267;28;20041;-70
2022/03/07 03:34:32;;;;;;;3.22;2.67;;;0.60;99.90;;;;;;5052242;28;20041;-70
2022/03/07 03:36:57;;;;;;;6.07;3.63;;;0.60;99.90;;;;;;5051665;28;20414;-70
2022/03/07 03:39:23;;;;;;;6.32;3.70;;;0.60;99.90;;;;;;5050695;28;20490;-70
2022/03/07 03:41:48;;;;;;;4.55;3.33;;;0.60;99.90;;;;;;5050835;28;20119;-70
2022/03/07 03:44:14;;;;;;;7.30;3.50;;;0.60;99.90;;;;;;5050299;28;20041;-70
2022/03/07 03:46:40;;;;;;;7.10;3.10;;;0.60;99.90;;;;;;5050132;28;20037;-70
2022/03/07 03:49:05;;;;;;;7.57;3.50;;;0.60;99.90;;;;;;5050634;28;20115;-70
2022/03/07 03:51:31;;;;;;;4.93;2.95;;;0.50;99.90;;;;;;5051697;28;20040;-70
2022/03/07 03:53:57;;;;;;;7.35;3.75;;;0.50;99.90;;;;;;5051790;28;20045;-70
2022/03/07 03:56:23;;;;;;;7.35;3.00;;;0.50;99.90;;;;;;5051620;28;20036;-70
2022/03/07 03:58:48;;;;;;;9.05;4.22;;;0.50;99.90;;;;;;5050544;28;20044;-70
2022/03/07 04:01:14;;;;;;;5.60;3.75;;;0.50;99.90;;;;;;5051702;28;20116;-70
2022/03/07 04:03:40;;;;;;;7.53;3.50;;;0.40;99.90;;;;;;5050087;28;20041;-70
2022/03/07 04:06:08;;;;;;;6.55;3.35;;;0.40;99.90;;;;;;5051203;28;20037;-70
2022/03/07 04:08:37;;;;;;;4.22;3.30;;;0.40;99.90;;;;;;5050571;28;20048;-70
2022/03/07 04:11:03;;;;;;;5.75;3.45;;;0.40;99.90;;;;;;5051724;28;20036;-70
2022/03/07 04:13:28;;;;;;;7.22;3.30;;;0.30;99.90;;;;;;5051689;28;20047;-70
2022/03/07 04:15:54;;;;;;;5.50;3.00;;;0.30;99.90;;;;;;5049945;28;20451;-70
2022/03/07 04:18:20;;;;;;;6.32;3.30;;;0.30;99.90;;;;;;5051088;28;20510;-70
2022/03/07 04:20:45;;;;;;;7.30;3.22;;;0.20;99.90;;;;;;5050374;28;20041;-70
2022/03/07 04:23:11;;;;;;;5.55;3.80;;;0.20;99.90;;;;;;5049896;28;20041;-70
2022/03/07 04:25:37;;;;;;;9.38;3.97;;;0.20;99.90;;;;;;5049908;28;20037;-70
2022/03/07 04:28:04;;;;;;;5.43;4.28;;;0.20;99.90;;;;;;5051432;28;20044;-70
2022/03/07 04:30:30;;;;;;;5.95;3.08;;;0.20;99.90;;;;;;5050419;28;20071;-69
2022/03/07 04:32:56;;;;;;;6.70;3.30;;;0.20;99.90;;;;;;5051379;28;20032;-69
2022/03/07 04:35:21;;;;;;;6.10;3.10;;;0.20;99.90;;;;;;5049822;28;20044;-69
2022/03/07 04:37:47;;;;;;;4.90;3.80;;;0.20;99.90;;;;;;5051464;28;20114;-69
2022/03/07 04:40:16;;;;;;;5.78;3.58;;;0.20;99.90;;;;;;5051382;28;20037;-69
2022/03/07 04:42:43;;;;;;;5.63;3.25;;;0.20;99.90;;;;;;5050054;28;20076;-69
2022/03/07 04:45:10;;;;;;;4.97;3.70;;;0.20;99.90;;;;;;5050969;28;20091;-70
2022/03/07 04:47:36;;;;;;;4.32;3.20;;;0.20;99.90;;;;;;5049677;28;20091;-70
2022/03/07 04:50:03;;;;;;;5.47;4.00;;;0.20;99.90;;;;;;5050003;28;20072;-69
2022/03/07 04:52:28;;;;;;;4.45;3.67;;;0.20;99.90;;;;;;5051085;28;20045;-70
2022/03/07 04:54:54;;;;;;;5.93;3.53;;;0.20;99.90;;;;;;5051355;28;20043;-70
2022/03/07 04:57:19;;;;;;;6.25;3.17;;;0.10;99.90;;;;;;5050576;28;20498;-70
2022/03/07 04:59:45;;;;;;;4.90;3.28;;;0.20;99.90;;;;;;5051055;28;20048;-70
2022/03/07 05:02:14;;;;;;;4.72;2.70;;;0.10;99.90;;;;;;5050365;28;20033;-70
2022/03/07 05:04:40;;;;;;;5.78;3.05;;;0.10;99.90;;;;;;5050091;28;20509;-70
2022/03/07 05:07:06;;;;;;;3.28;2.42;;;0.10;99.90;;;;;;5049405;28;20049;-70
2022/03/07 05:09:32;;;;;;;3.55;3.03;;;0.10;99.90;;;;;;5049970;28;20394;-68
2022/03/07 05:11:58;;;;;;;5.57;3.95;;;0.10;99.90;;;;;;5049659;28;20048;-67
2022/03/07 05:14:24;;;;;;;10.40;4.32;;;0.00;99.90;;;;;;5051142;28;20441;-67
2022/03/07 05:16:50;;;;;;;6.63;3.97;;;0.00;99.90;;;;;;5052923;28;20083;-67
2022/03/07 05:19:15;;;;;;;6.10;3.78;;;0.00;99.90;;;;;;5054446;28;20041;-68
2022/03/07 05:21:41;;;;;;;8.55;4.20;;;0.00;99.90;;;;;;5054262;28;20037;-68
2022/03/07 05:24:07;;;;;;;8.10;4.57;;;0.00;99.90;;;;;;5054288;28;20660;-67
2022/03/07 05:26:32;;;;;;;5.28;3.58;;;0.00;99.90;;;;;;5053634;28;20036;-68
2022/03/07 05:28:58;;;;;;;7.22;4.32;;;0.00;99.90;;;;;;5052943;28;20498;-68
2022/03/07 05:31:23;;;;;;;6.53;4.50;;;0.00;99.90;;;;;;5054448;28;20041;-67
2022/03/07 05:33:49;;;;;;;7.38;4.13;;;0.00;99.90;;;;;;5052934;28;20140;-67
2022/03/07 05:36:15;;;;;;;6.63;4.38;;;0.00;99.90;;;;;;5052684;28;20081;-68
2022/03/07 05:38:40;;;;;;;7.60;4.05;;;0.00;99.90;;;;;;5052578;28;20545;-67
2022/03/07 05:41:06;;;;;;;7.32;3.80;;;-0.10;99.90;;;;;;5053837;28;20079;-70
2022/03/07 05:43:31;;;;;;;5.63;4.18;;;0.00;99.90;;;;;;5053969;28;20040;-70
2022/03/07 05:45:57;;;;;;;9.95;4.47;;;-0.10;99.90;;;;;;5052164;28;20041;-69
2022/03/07 05:48:23;;;;;;;9.05;4.47;;;0.00;99.90;;;;;;5052659;28;20464;-68
2022/03/07 05:50:48;;;;;;;11.77;4.40;;;-0.10;99.90;;;;;;5054009;28;20041;-69
2022/03/07 05:53:14;;;;;;;6.25;4.00;;;0.00;99.90;;;;;;5054046;28;20037;-68
2022/03/07 05:55:41;;;;;;;7.22;4.32;;;-0.10;99.90;;;;;;5053562;28;20546;-69
2022/03/07 05:58:07;;;;;;;6.72;4.40;;;-0.10;99.90;;;;;;5053841;28;20452;-68
2022/03/07 06:00:32;;;;;;;11.57;5.95;;;-0.10;99.90;;;;;;5053870;28;20119;-69
2022/03/07 06:02:58;;;;;;;9.02;5.68;;;0.00;99.90;;;;;;5053836;28;20505;-69
2022/03/07 06:05:24;;;;;;;8.20;5.63;;;0.00;99.90;;;;;;5052099;28;20398;-69
2022/03/07 06:07:49;;;;;;;8.40;5.32;;;0.00;99.90;;;;;;5053457;28;20033;-70
2022/03/07 06:10:15;;;;;;;8.35;5.43;;;0.00;99.90;;;;;;5053527;28;20025;-68
2022/03/07 06:12:40;;;;;;;9.55;5.25;;;0.00;99.90;;;;;;5052530;28;20122;-68
2022/03/07 06:15:07;;;;;;;8.55;5.00;;;-0.10;99.90;;;;;;5052728;28;20045;-68
2022/03/07 06:17:34;;;;;;;8.43;5.10;;;-0.10;99.90;;;;;;5053302;28;20112;-69
2022/03/07 06:20:00;;;;;;;5.65;4.55;;;-0.10;99.90;;;;;;5052205;28;20466;-69
2022/03/07 06:22:25;;;;;;;9.48;4.82;;;-0.10;99.90;;;;;;5052386;28;20049;-71
2022/03/07 06:24:51;;;;;;;9.00;5.38;;;0.00;99.90;;;;;;5050077;28;20402;-72
2022/03/07 06:27:17;;;;;;;13.88;6.60;;;0.00;99.90;;;;;;5049678;28;20048;-72
2022/03/07 06:29:42;;;;;;;11.73;6.40;;;0.00;99.90;;;;;;5051788;28;20036;-72
2022/03/07 06:32:08;;;;;;;9.63;6.00;;;0.00;99.90;;;;;;5053132;28;20094;-72
2022/03/07 06:34:34;;;;;;;11.30;7.10;;;0.00;99.90;;;;;;5052358;28;20189;-72
2022/03/07 06:37:00;;;;;;;9.60;6.38;;;0.10;99.90;;;;;;5050810;28;20127;-71
2022/03/07 06:39:27;;;;;;;8.63;5.00;;;0.10;99.90;;;;;;5051579;28;20128;-71
2022/03/07 06:41:56;;;;;;;9.23;5.45;;;0.10;99.90;;;;;;5051720;28;20044;-72
2022/03/07 06:44:25;;;;;;;8.80;5.15;;;0.20;99.90;;;;;;5051316;28;20037;-71
2022/03/07 06:46:51;;;;;;;13.77;7.63;;;0.20;99.90;;;;;;5051201;28;20063;-72
2022/03/07 06:49:17;;;;;;;8.00;4.90;;;0.20;99.90;;;;;;5051403;28;20494;-71
2022/03/07 06:51:42;;;;;;;7.00;4.88;;;0.30;99.90;;;;;;5051228;28;20037;-72
2022/03/07 06:54:08;;;;;;;7.40;4.80;;;0.30;99.90;;;;;;5051482;28;20116;-71
2022/03/07 06:56:33;;;;;;;7.82;4.82;;;0.40;99.90;;;;;;5052360;28;20029;-73
2022/03/07 06:58:59;;;;;;;8.85;4.80;;;0.40;99.90;;;;;;5051288;28;20041;-73
2022/03/07 07:01:25;;;;;;;7.55;4.80;;;0.60;99.90;;;;;;5051362;28;20095;-73
2022/03/07 07:03:50;;;;;;;7.97;4.82;;;0.70;99.90;;;;;;5051162;28;20041;-73
2022/03/07 07:06:16;;;;;;;8.52;5.57;;;0.80;99.90;;;;;;5050666;28;20045;-73
2022/03/07 07:08:42;;;;;;;8.35;5.28;;;1.00;99.90;;;;;;5052420;28;20048;-73
2022/03/07 07:11:07;;;;;;;9.73;5.82;;;1.20;99.90;;;;;;5052375;28;20048;-73
2022/03/07 07:13:33;;;;;;;6.88;5.63;;;1.40;99.90;;;;;;5051267;28;20045;-72
2022/03/07 07:15:58;;;;;;;9.38;6.75;;;1.60;99.90;;;;;;5051982;28;20048;-73
2022/03/07 07:18:25;;;;;;;10.38;7.75;;;1.80;99.90;;;;;;5052012;28;20048;-73
2022/03/07 07:20:52;;;;;;;12.05;7.70;;;2.00;99.90;;;;;;5050909;28;20048;-72
2022/03/07 07:23:19;;;;;;;9.85;7.30;;;2.20;99.90;;;;;;5050759;28;20049;-72
2022/03/07 07:25:45;;;;;;;14.20;8.73;;;2.40;99.90;;;;;;5050479;28;20108;-73
2022/03/07 07:28:11;;;;;;;11.20;8.40;;;2.70;99.90;;;;;;5050799;28;20048;-73
2022/03/07 07:30:37;;;;;;;10.40;8.20;;;2.80;99.90;;;;;;5052102;28;20422;-72
2022/03/07 07:33:03;;;;;;;12.52;8.27;;;3.00;99.90;;;;;;5052004;28;20395;-72
2022/03/07 07:35:28;;;;;;;12.90;8.52;;;3.20;99.90;;;;;;5050251;28;20569;-71
2022/03/07 07:37:54;;;;;;;13.65;7.93;;;3.40;99.90;;;;;;5050035;28;20045;-71
2022/03/07 07:40:20;;;;;;;11.82;7.95;;;3.60;99.90;;;;;;5050607;28;20127;-71
2022/03/07 07:42:46;;;;;;;12.45;8.43;;;3.90;99.90;;;;;;5051811;28;20131;-71
2022/03/07 07:45:12;;;;;;;12.32;8.10;;;4.10;99.90;;;;;;5050200;28;20124;-71
2022/03/07 07:47:38;;;;;;;18.50;8.95;;;4.20;99.90;;;;;;5050110;28;20045;-71
2022/03/07 07:50:05;;;;;;;18.13;8.15;;;4.30;99.90;;;;;;5050363;28;20117;-71
2022/03/07 07:52:30;;;;;;;14.18;8.50;;;4.40;99.90;;;;;;5051915;28;20091;-71
2022/03/07 07:54:56;;;;;;;12.30;8.18;;;4.60;99.90;;;;;;5050479;28;20041;-71
2022/03/07 07:57:21;;;;;;;11.45;7.70;;;4.70;99.90;;;;;;5050181;28;20516;-71
2022/03/07 07:59:47;;;;;;;12.25;7.55;;;4.90;99.90;;;;;;5050266;28;20044;-71
2022/03/07 08:02:12;;;;;;;11.65;7.15;;;4.90;99.90;;;;;;5050470;28;20044;-71
2022/03/07 08:04:38;;;;;;;14.02;7.22;;;5.10;99.90;;;;;;5050173;28;20045;-71
2022/03/07 08:07:03;;;;;;;8.45;6.65;;;5.10;99.90;;;;;;5049919;28;20044;-71
2022/03/07 08:09:29;;;;;;;9.32;5.90;;;5.30;99.90;;;;;;5051701;28;20040;-71
2022/03/07 08:11:55;;;;;;;10.85;7.05;;;5.40;99.90;;;;;;5050499;28;20179;-70
2022/03/07 08:14:20;;;;;;;9.38;6.32;;;5.50;99.90;;;;;;5050192;28;20056;-71
2022/03/07 08:16:46;;;;;;;9.07;5.28;;;5.60;99.90;;;;;;5049825;28;20044;-71
2022/03/07 08:19:12;;;;;;;11.25;5.85;;;5.60;99.90;;;;;;5050211;28;20051;-71
2022/03/07 08:21:37;;;;;;;9.25;6.13;;;5.90;99.90;;;;;;5051464;28;20071;-73
2022/03/07 08:24:03;;;;;;;13.25;6.32;;;6.00;99.90;;;;;;5050086;28;20444;-73
2022/03/07 08:26:29;;;;;;;9.00;5.55;;;6.10;99.90;;;;;;5049992;28;20041;-73
2022/03/07 08:28:54;;;;;;;7.55;4.22;;;6.20;99.90;;;;;;5051501;28;20387;-73
2022/03/07 08:31:20;;;;;;;9.00;5.03;;;6.30;99.90;;;;;;5051436;28;20040;-73
2022/03/07 08:33:45;;;;;;;11.50;4.53;;;6.40;99.90;;;;;;5050829;28;20542;-72
2022/03/07 08:36:11;;;;;;;9.38;4.57;;;6.50;99.90;;;;;;5051442;28;20513;-72
2022/03/07 08:38:36;;;;;;;12.48;5.05;;;6.50;99.90;;;;;;5050084;28;20041;-73
2022/03/07 08:41:02;;;;;;;5.60;4.30;;;6.50;99.90;;;;;;5050128;28;20575;-73
2022/03/07 08:43:28;;;;;;;9.52;5.13;;;6.70;99.90;;;;;;5049984;28;20075;-72
2022/03/07 08:45:53;;;;;;;7.82;4.53;;;6.80;99.90;;;;;;5049706;28;20041;-72
2022/03/07 08:48:19;;;;;;;9.18;4.00;;;6.70;99.90;;;;;;5051166;28;20037;-72
2022/03/07 08:50:48;;;;;;;9.98;4.55;;;6.70;99.90;;;;;;5054086;28;20376;-72
2022/03/07 08:53:15;;;;;;;10.10;5.75;;;6.80;99.90;;;;;;5053924;28;20490;-73
2022/03/07 08:55:41;;;;;;;4.38;3.30;;;6.70;99.90;;;;;;5053423;28;20032;-73
2022/03/07 08:58:07;;;;;;;4.85;3.30;;;6.80;99.90;;;;;;5053745;28;20120;-72
2022/03/07 09:00:33;;;;;;;4.90;2.50;;;6.70;99.90;;;;;;5053780;28;20098;-73
2022/03/07 09:02:59;;;;;;;6.82;4.25;;;6.70;99.90;;;;;;5053250;28;20044;-72
2022/03/07 09:05:25;;;;;;;3.95;2.72;;;6.70;99.90;;;;;;5053218;28;20076;-72
2022/03/07 09:07:51;;;;;;;4.68;2.85;;;6.70;99.90;;;;;;5053456;28;20055;-72
2022/03/07 09:10:17;;;;;;;10.05;4.38;;;6.70;99.90;;;;;;5053389;28;20447;-73
2022/03/07 09:12:43;;;;;;;6.97;3.97;;;6.80;99.90;;;;;;5053618;28;20045;-73
2022/03/07 09:15:09;;;;;;;7.18;3.38;;;6.70;99.90;;;;;;5054414;28;20088;-73
2022/03/07 09:17:35;;;;;;;5.18;3.30;;;6.80;99.90;;;;;;5036219;28;20060;-72
2022/03/07 09:20:01;;;;;;;6.35;4.00;;;6.70;99.90;;;;;;5054706;28;20037;-72
2022/03/07 09:22:27;;;;;;;5.68;3.53;;;6.70;99.90;;;;;;5053260;28;20434;-72
2022/03/07 09:24:53;;;;;;;7.00;3.83;;;6.70;99.90;;;;;;5054572;28;20201;-72
2022/03/07 09:27:19;;;;;;;8.38;4.47;;;6.70;99.90;;;;;;5053830;28;20037;-73
2022/03/07 09:29:45;;;;;;;6.20;2.85;;;6.60;99.90;;;;;;5054241;28;20045;-72
2022/03/07 09:32:11;;;;;;;8.77;3.22;;;6.60;99.90;;;;;;5053056;28;20095;-72
2022/03/07 09:34:36;;;;;;;12.75;4.50;;;6.60;99.90;;;;;;5054320;28;20083;-72
2022/03/07 09:37:04;;;;;;;9.02;3.92;;;6.50;99.90;;;;;;5052807;28;20494;-72
2022/03/07 09:39:31;;;;;;;9.10;3.65;;;6.50;99.90;;;;;;5053172;28;20159;-72
2022/03/07 09:41:58;;;;;;;10.90;4.45;;;6.50;99.90;;;;;;5052643;28;20076;-73
2022/03/07 09:44:23;;;;;;;8.43;4.32;;;6.50;99.90;;;;;;5052847;28;20056;-72
2022/03/07 09:46:50;;;;;;;6.00;4.28;;;6.50;99.90;;;;;;5052040;28;20509;-72
2022/03/07 09:49:18;;;;;;;6.82;4.20;;;6.50;99.90;;;;;;5052578;28;20041;-72
2022/03/07 09:51:44;;;;;;;7.70;4.10;;;6.60;99.90;;;;;;5053957;28;20040;-72
2022/03/07 09:54:09;;;;;;;7.25;4.13;;;6.60;99.90;;;;;;5052573;28;20041;-72
2022/03/07 09:56:35;;;;;;;10.48;4.18;;;6.70;99.90;;;;;;5052160;28;20424;-72
2022/03/07 09:59:00;;;;;;;10.30;4.35;;;6.80;99.90;;;;;;5054229;28;20049;-72
2022/03/07 10:01:26;;;;;;;10.98;4.20;;;6.80;99.90;;;;;;5052299;28;20029;-72
2022/03/07 10:04:04;;;;;;;5.53;3.33;;;6.80;99.90;;;;;;5052464;28;20044;-72
2022/03/07 10:06:31;;;;;;;4.88;2.80;;;6.70;99.90;;;;;;5052075;28;20072;-72
2022/03/07 10:09:01;;;;;;;5.88;3.20;;;6.70;99.90;;;;;;5052440;28;20174;-72
2022/03/07 10:11:31;;;;;;;7.68;2.85;;;6.70;99.90;;;;;;5052291;28;20083;-72
2022/03/07 10:14:03;;;;;;;5.35;2.63;;;6.70;99.90;;;;;;5052483;28;20453;-72
2022/03/07 10:16:40;;;;;;;4.38;2.60;;;6.70;99.90;;;;;;5051715;28;20049;-73
2022/03/07 10:19:12;;;;;;;9.95;3.15;;;6.90;99.90;;;;;;5053396;28;20520;-72
2022/03/07 10:21:51;;;;;;;6.93;3.28;;;7.00;99.90;;;;;;5052146;28;20124;-72
2022/03/07 10:24:18;;;;;;;5.93;3.15;;;7.00;99.90;;;;;;5052038;28;20049;-72
2022/03/07 10:26:44;;;;;;;5.68;2.90;;;7.00;99.90;;;;;;5052908;28;20032;-72
2022/03/07 10:29:10;;;;;;;7.85;3.25;;;6.90;99.90;;;;;;5051960;28;20102;-72
2022/03/07 10:31:37;;;;;;;6.65;2.78;;;6.90;99.90;;;;;;5053210;28;20041;-72
2022/03/07 10:34:05;;;;;;;6.85;3.45;;;6.90;99.90;;;;;;5053021;28;20052;-72
2022/03/07 10:36:39;;;;;;;7.47;3.40;;;6.80;99.90;;;;;;5034659;28;20045;-72
2022/03/07 10:39:07;;;;;;;9.77;4.03;;;6.90;99.90;;;;;;5053268;28;20087;-72
2022/03/07 10:41:41;;;;;;;15.57;3.60;;;6.80;99.90;;;;;;5051645;28;20040;-72
2022/03/07 10:44:11;;;;;;;5.72;2.60;;;6.90;99.90;;;;;;5051474;28;20124;-71
2022/03/07 10:46:38;;;;;;;8.05;2.60;;;6.80;99.90;;;;;;5052325;28;20047;-72
2022/03/07 10:49:07;;;;;;;8.63;3.50;;;6.90;99.90;;;;;;5051400;28;20044;-71
2022/03/07 10:51:33;;;;;;;14.40;3.97;;;7.00;99.90;;;;;;5051518;28;20561;-71
2022/03/07 10:54:10;;;;;;;6.72;3.15;;;7.10;99.90;;;;;;5051362;28;20041;-72
2022/03/07 10:56:52;;;;;;;9.55;3.17;;;7.20;99.90;;;;;;5051204;28;20037;-72
2022/03/07 10:59:31;;;;;;;7.70;3.42;;;7.20;99.90;;;;;;5051463;28;20041;-72
2022/03/07 11:02:05;;;;;;;7.30;3.30;;;7.30;99.90;;;;;;5051120;28;20045;-71
2022/03/07 11:04:31;;;;;;;4.25;3.08;;;7.30;99.90;;;;;;5051381;28;20037;-71
2022/03/07 11:06:57;;;;;;;8.68;3.75;;;7.40;99.90;;;;;;5050698;28;20064;-72
2022/03/07 11:09:22;;;;;;;8.52;3.45;;;7.50;99.90;;;;;;5051149;28;20076;-72
2022/03/07 11:11:51;;;;;;;6.88;3.05;;;7.60;99.90;;;;;;5050875;28;20052;-72
2022/03/07 11:14:17;;;;;;;5.03;2.53;;;7.50;97.80;;;;;;5050574;28;20041;-72
2022/03/07 11:16:45;;;;;;;4.10;2.20;;;7.40;95.40;;;;;;5050614;28;20573;-72
2022/03/07 11:19:12;;;;;;;6.30;2.95;;;7.30;94.40;;;;;;5052290;28;20090;-72
2022/03/07 11:21:41;;;;;;;7.15;3.25;;;7.20;94.10;;;;;;5051067;28;20118;-72
2022/03/07 11:24:07;;;;;;;7.22;3.67;;;7.20;94.60;;;;;;5052081;28;20045;-72
2022/03/07 11:26:33;;;;;;;10.50;3.95;;;7.40;95.20;;;;;;5051658;28;20116;-72
2022/03/07 11:28:58;;;;;;;8.77;3.42;;;7.40;94.80;;;;;;5051896;28;20033;-72
2022/03/07 11:31:26;;;;;;;7.35;2.63;;;7.40;94.20;;;;;;5051022;28;20068;-72
2022/03/07 11:33:53;;;;;;;5.15;2.60;;;7.40;94.00;;;;;;5051943;28;20525;-72
2022/03/07 11:36:20;;;;;;;4.22;2.13;;;7.60;93.40;;;;;;5050554;28;20086;-72
2022/03/07 11:38:55;;;;;;;4.43;1.77;;;7.60;91.90;;;;;;5050618;28;20155;-72
2022/03/07 11:41:29;;;;;;;6.25;2.33;;;7.70;86.80;;;;;;5050770;28;20106;-72
2022/03/07 11:43:56;;;;;;;3.45;1.77;;;7.80;89.90;;;;;;5050409;28;20052;-72
2022/03/07 11:46:23;;;;;;;3.60;1.80;;;7.70;88.00;;;;;;5049986;28;20506;-72
2022/03/07 11:48:49;;;;;;;2.75;1.70;;;7.70;86.70;;;;;;5050512;28;20128;-72
2022/03/07 11:51:22;;;;;;;4.20;1.42;;;7.70;83.80;;;;;;5051736;28;20064;-73
2022/03/07 11:53:49;;;;;;;2.90;1.50;;;7.70;83.50;;;;;;5051570;28;20049;-72
2022/03/07 11:56:20;;;;;;;5.63;2.08;;;7.70;81.00;;;;;;5049974;28;20076;-72
2022/03/07 11:58:49;;;;;;;1.92;1.30;;;7.80;79.80;;;;;;5051494;28;20033;-72
2022/03/07 12:01:15;;;;;;;7.97;2.20;;;7.60;79.40;;;;;;5050326;28;20039;-72
2022/03/07 12:03:40;;;;;;;2.28;1.70;;;7.60;82.30;;;;;;5050258;28;20052;-72
2022/03/07 12:06:14;;;;;;;3.67;1.95;;;7.60;84.10;;;;;;5049861;28;20504;-72
2022/03/07 12:08:47;;;;;;;2.67;1.63;;;7.60;84.80;;;;;;5033746;28;20114;-72
2022/03/07 12:11:26;;;;;;;2.40;1.55;;;7.60;85.10;;;;;;5050204;28;20037;-72
2022/03/07 12:13:54;;;;;;;3.28;1.50;;;7.70;83.10;;;;;;5051577;28;20049;-71
2022/03/07 12:16:29;;;;;;;3.67;2.15;;;7.60;81.40;;;;;;5033644;28;20052;-72
2022/03/07 12:19:11;;;;;;;3.17;1.80;;;7.60;82.10;;;;;;5050485;28;20048;-72
2022/03/07 12:21:41;;;;;;;4.65;2.25;;;7.70;82.10;;;;;;5050208;28;20494;-72
2022/03/07 12:24:09;;;;;;;3.55;1.60;;;7.60;80.30;;;;;;5051853;28;20037;-70
2022/03/07 12:27:03;;;;;;;1.70;1.25;;;7.70;80.20;;;;;;5053843;28;20126;-70
2022/03/07 12:29:28;;;;;;;;;;;7.60;75.40;;;;;;5054897;28;20394;-72
2022/03/07 12:31:54;;;;;;;2.75;1.50;;;7.50;74.00;;;;;;5054137;28;19916;-72
2022/03/07 12:34:27;;;;;;;2.28;1.75;;;7.40;76.20;;;;;;5054052;28;20048;-72
2022/03/07 12:37:17;;;;;;;1.90;1.70;;;7.50;75.40;;;;;;5053618;28;20045;-72
2022/03/07 12:39:53;;;;;;;4.30;1.95;;;7.60;74.50;;;;;;5053990;28;20040;-72
2022/03/07 12:42:33;;;;;;;3.70;1.80;;;7.60;75.90;;;;;;5054058;28;20448;-72
2022/03/07 12:45:00;;;;;;;3.28;2.25;;;7.60;76.00;;;;;;5037507;28;20040;-72
2022/03/07 12:47:35;;;;;;;2.88;1.65;;;7.70;76.20;;;;;;5053698;28;20041;-72
2022/03/07 12:50:03;;;;;;;2.25;1.70;;;7.80;72.20;;;;;;5053605;28;20102;-72
2022/03/07 12:52:31;;;;;;;4.15;2.08;;;7.90;70.90;;;;;;5053948;28;20071;-72
2022/03/07 12:54:59;;;;;;;2.53;1.63;;;8.00;68.90;;;;;;5053679;28;20052;-72